WXM80 ListenWXM80 Stop

You find our weather info also at:

UK Metoffice

WeatherCloud

Weather Underground

Northeastern Weather Network

AWEKAS

Citizen Weather Observer Program (CWOP)

HAMweather, WeatherForYou, PWS Weather


Weather Underground History page Text

Daily Summary for August 17, 2017 Units:  Metric    English   Both
« Previous Day
Next Day »
Daily Weekly Monthly Yearly Custom
  High: Low: Average:
Temperature: 27.8 °C 20.3 °C 23.6 °C
Dew Point: 20.2 °C 15.7 °C 17.6 °C
Humidity: 93 % 48 % 71 %
Wind Speed: 8 km/h 0 km/h 2.4 km/h
Wind Gust: 16.7 km/h - -
Wind:- - ENE
Pressure: 1016.8 hPa 1013.1 hPa -
Precipitation: 0 mm    
Historical Graphs
 
 
Tabular Data for August 17, 2017
Time Temperature Dew Point Pressure Wind Wind Speed Wind Gust Humidity Rainfall Rate (Hourly)
00:04 21.4 °C 19.3 °C 1014.8 hPa Calm     88 % 0 mm
00:09 21.4 °C 19.3 °C 1014.8 hPa Calm     88 % 0 mm
00:14 21.4 °C 19.5 °C 1014.8 hPa Calm     89 % 0 mm
00:19 21.3 °C 19.3 °C 1014.8 hPa Calm     88 % 0 mm
00:25 21.3 °C 19.2 °C 1014.8 hPa Calm     88 % 0 mm
00:30 21.3 °C 19.2 °C 1014.8 hPa Calm     88 % 0 mm
00:35 21.2 °C 19.2 °C 1014.8 hPa Calm   1.9 km/h 88 % 0 mm
00:40 21.2 °C 19.1 °C 1014.8 hPa Calm     88 % 0 mm
00:45 21.1 °C 19.2 °C 1014.8 hPa Calm     89 % 0 mm
00:50 21.1 °C 19.2 °C 1014.4 hPa Calm     89 % 0 mm
00:55 21.1 °C 19.2 °C 1014.8 hPa Calm     89 % 0 mm
01:00 21 °C 19.1 °C 1014.8 hPa Calm     89 % 0 mm
01:05 20.9 °C 18.7 °C 1014.8 hPa North 4.8 km/h 7.4 km/h 87 % 0 mm
01:10 20.8 °C 18.4 °C 1014.8 hPa NNE 6.3 km/h 8 km/h 86 % 0 mm
01:15 20.8 °C 18.2 °C 1014.8 hPa NNE 6.4 km/h 11.1 km/h 85 % 0 mm
01:20 20.9 °C 17.9 °C 1015.1 hPa NNE 6.1 km/h 9.3 km/h 83 % 0 mm
01:25 21 °C 18 °C 1014.8 hPa NNE 4.7 km/h 9.3 km/h 83 % 0 mm
01:30 21.2 °C 17.8 °C 1014.8 hPa North 6.1 km/h 11.1 km/h 81 % 0 mm
01:35 21.3 °C 18.1 °C 1014.8 hPa NNE 6.1 km/h 9.7 km/h 82 % 0 mm
01:40 21.4 °C 18 °C 1014.8 hPa NNE 5 km/h 7.4 km/h 81 % 0 mm
01:45 21.4 °C 17.8 °C 1015.1 hPa NNE 3.9 km/h 9.3 km/h 80 % 0 mm
01:51 21.6 °C 17.9 °C 1015.1 hPa NNE 5 km/h 9.3 km/h 80 % 0 mm
01:56 21.6 °C 17.8 °C 1015.1 hPa NE 5.8 km/h 9.7 km/h 79 % 0 mm
02:01 21.7 °C 17.9 °C 1015.1 hPa North 4.8 km/h 7.4 km/h 79 % 0 mm
02:02 21.7 °C 17.9 °C 1015.1 hPa NNE 4 km/h 5.6 km/h 79 % 0 mm
02:07 21.7 °C 17.9 °C 1015.1 hPa North 2.4 km/h 5.6 km/h 79 % 0 mm
02:12 21.8 °C 18 °C 1014.8 hPa NNE 2.4 km/h 5.6 km/h 79 % 0 mm
02:17 21.8 °C 17.6 °C 1015.1 hPa North 4.2 km/h 11.1 km/h 77 % 0 mm
02:22 21.8 °C 17.3 °C 1014.8 hPa NNE 2.7 km/h 5.6 km/h 76 % 0 mm
02:27 21.8 °C 17.2 °C 1014.8 hPa NE 4.7 km/h 8 km/h 75 % 0 mm
02:32 21.8 °C 16.9 °C 1014.8 hPa NE 2.9 km/h 5.6 km/h 74 % 0 mm
02:38 21.7 °C 16.9 °C 1014.8 hPa NNE 3.1 km/h 6.4 km/h 74 % 0 mm
02:43 21.7 °C 16.7 °C 1014.8 hPa NNE 4.8 km/h 8 km/h 73 % 0 mm
02:48 21.7 °C 16.4 °C 1014.8 hPa NNE 6.8 km/h 9.3 km/h 72 % 0 mm
02:53 21.7 °C 16.4 °C 1014.8 hPa NNE 5.5 km/h 9.3 km/h 72 % 0 mm
02:58 21.7 °C 16.7 °C 1014.8 hPa NNE 2.3 km/h 5.6 km/h 73 % 0 mm
03:03 21.7 °C 16.6 °C 1014.8 hPa NNE 5.8 km/h 7.4 km/h 73 % 0 mm
03:08 21.7 °C 16.4 °C 1014.8 hPa North 3.2 km/h 7.4 km/h 72 % 0 mm
03:13 21.6 °C 16.1 °C 1014.8 hPa NNE 6.1 km/h 11.1 km/h 71 % 0 mm
03:18 21.6 °C 16.1 °C 1014.8 hPa NNE 1.1 km/h 3.7 km/h 71 % 0 mm
03:23 21.6 °C 16.3 °C 1014.8 hPa NE 3.4 km/h 6.4 km/h 72 % 0 mm
03:28 21.6 °C 16.3 °C 1014.8 hPa NNE 1.1 km/h 5.6 km/h 72 % 0 mm
03:33 21.5 °C 16.2 °C 1015.1 hPa NNE 4.7 km/h 7.4 km/h 72 % 0 mm
03:38 21.4 °C 16.2 °C 1014.8 hPa NNE 3.7 km/h 7.4 km/h 72 % 0 mm
03:44 21.3 °C 16.1 °C 1014.8 hPa North 1.1 km/h 4.8 km/h 72 % 0 mm
03:49 21.3 °C 16.1 °C 1014.8 hPa North 4.3 km/h 5.6 km/h 72 % 0 mm
03:54 21.2 °C 15.8 °C 1014.8 hPa NNE 4.3 km/h 7.4 km/h 71 % 0 mm
03:59 21.2 °C 15.7 °C 1015.1 hPa NNE 2.7 km/h 7.4 km/h 71 % 0 mm
04:04 21.2 °C 15.9 °C 1014.8 hPa NNE 4.5 km/h 9.3 km/h 72 % 0 mm
04:09 21.1 °C 16.1 °C 1014.8 hPa NNE 4.8 km/h 7.4 km/h 73 % 0 mm
04:14 21.1 °C 16.3 °C 1014.8 hPa NNE 1.8 km/h 5.6 km/h 74 % 0 mm
04:19 21.1 °C 16.2 °C 1014.8 hPa NNE 5.5 km/h 7.4 km/h 74 % 0 mm
04:24 20.9 °C 16.1 °C 1014.8 hPa North 3.4 km/h 5.6 km/h 74 % 0 mm
04:29 20.9 °C 16.1 °C 1014.8 hPa NNE 3.2 km/h 5.6 km/h 74 % 0 mm
04:34 20.8 °C 16.4 °C 1014.8 hPa North 6.4 km/h 8 km/h 76 % 0 mm
04:39 20.8 °C 16.6 °C 1014.8 hPa NNE 3.5 km/h 5.6 km/h 77 % 0 mm
04:44 20.7 °C 16.7 °C 1014.8 hPa NNE 1.1 km/h 5.6 km/h 78 % 0 mm
04:49 20.7 °C 16.5 °C 1014.8 hPa North 3.1 km/h 5.6 km/h 77 % 0 mm
04:54 20.6 °C 16.4 °C 1014.8 hPa NE 0.5 km/h 5.6 km/h 77 % 0 mm
04:59 20.6 °C 16.4 °C 1015.1 hPa NE 2.3 km/h 7.4 km/h 77 % 0 mm
05:04 20.4 °C 16.1 °C 1015.1 hPa NE 2.7 km/h 11.1 km/h 76 % 0 mm
05:09 20.4 °C 16 °C 1015.1 hPa ENE 4 km/h 11.1 km/h 76 % 0 mm
05:14 20.3 °C 15.8 °C 1015.1 hPa NE 1.6 km/h 5.6 km/h 75 % 0 mm
05:20 20.4 °C 15.8 °C 1015.1 hPa NE 1.8 km/h 5.6 km/h 75 % 0 mm
05:25 20.4 °C 16.1 °C 1015.1 hPa NE 4 km/h 7.4 km/h 76 % 0 mm
05:30 20.4 °C 15.9 °C 1015.1 hPa NNE 3.1 km/h 11.1 km/h 75 % 0 mm
05:35 20.5 °C 16.1 °C 1015.5 hPa NE 1.1 km/h 5.6 km/h 76 % 0 mm
05:40 20.6 °C 16.4 °C 1015.5 hPa NE 5.1 km/h 7.4 km/h 77 % 0 mm
05:45 20.6 °C 16.4 °C 1015.1 hPa NE 2.1 km/h 7.4 km/h 77 % 0 mm
05:50 20.6 °C 16.4 °C 1015.5 hPa ENE 4 km/h 11.3 km/h 77 % 0 mm
05:55 20.6 °C 16.2 °C 1015.5 hPa NE 2.7 km/h 5.6 km/h 76 % 0 mm
06:00 20.6 °C 16.4 °C 1015.5 hPa ENE 2.6 km/h 6.4 km/h 77 % 0 mm
06:05 20.5 °C 16.3 °C 1015.5 hPa NE 3.2 km/h 5.6 km/h 77 % 0 mm
06:10 20.4 °C 16.3 °C 1015.5 hPa NE 1.6 km/h 3.7 km/h 77 % 0 mm
06:15 20.4 °C 16.3 °C 1015.5 hPa NE 3.2 km/h 7.4 km/h 77 % 0 mm
06:20 20.4 °C 16.2 °C 1015.5 hPa North 2.4 km/h 14.8 km/h 77 % 0 mm
06:25 20.4 °C 16.4 °C 1015.8 hPa NE 2.6 km/h 11.1 km/h 78 % 0 mm
06:31 20.3 °C 16.4 °C 1015.8 hPa ENE 2.7 km/h 5.6 km/h 78 % 0 mm
06:36 20.3 °C 16.4 °C 1015.8 hPa ENE 4.8 km/h 12.9 km/h 78 % 0 mm
06:41 20.3 °C 16.2 °C 1015.8 hPa ENE 4.8 km/h 12.9 km/h 77 % 0 mm
06:46 20.4 °C 16.3 °C 1015.8 hPa NE 4.8 km/h 11.3 km/h 77 % 0 mm
06:51 20.5 °C 16.3 °C 1015.8 hPa NE 4.8 km/h 8 km/h 77 % 0 mm
06:53 20.6 °C 16.4 °C 1015.8 hPa NE 0.2 km/h 3.7 km/h 77 % 0 mm
06:58 20.6 °C 16.2 °C 1016.1 hPa NE 4 km/h 7.4 km/h 76 % 0 mm
07:03 20.7 °C 16.5 °C 1016.1 hPa East 4.3 km/h 6.4 km/h 77 % 0 mm
07:08 20.7 °C 16.3 °C 1016.1 hPa NE 3.7 km/h 11.1 km/h 76 % 0 mm
07:13 20.7 °C 16.6 °C 1016.1 hPa NE 2.7 km/h 5.6 km/h 77 % 0 mm
07:18 20.8 °C 16.6 °C 1016.5 hPa NE 6 km/h 11.3 km/h 77 % 0 mm
07:23 20.8 °C 16.7 °C 1016.5 hPa NE 3.9 km/h 7.4 km/h 77 % 0 mm
07:28 20.9 °C 16.7 °C 1016.5 hPa NE 7.9 km/h 16.7 km/h 77 % 0 mm
07:34 20.9 °C 16.8 °C 1016.5 hPa NE 3.2 km/h 5.6 km/h 77 % 0 mm
07:39 21 °C 16.8 °C 1016.5 hPa NE 1.9 km/h 5.6 km/h 77 % 0 mm
07:44 21 °C 17 °C 1016.8 hPa NE 1.4 km/h 3.7 km/h 78 % 0 mm
07:49 21 °C 17.2 °C 1016.8 hPa North 1.6 km/h 9.3 km/h 79 % 0 mm
07:54 21.1 °C 17.4 °C 1016.5 hPa ENE 1.9 km/h 8 km/h 80 % 0 mm
07:59 21.2 °C 17.6 °C 1016.8 hPa East 2.1 km/h 5.6 km/h 80 % 0 mm
08:04 21.2 °C 17.4 °C 1016.8 hPa NE 2.6 km/h 6.4 km/h 79 % 0 mm
08:09 21.3 °C 17.3 °C 1016.8 hPa NE 3.7 km/h 9.3 km/h 78 % 0 mm
08:14 21.3 °C 17.5 °C 1016.5 hPa ENE 5.1 km/h 11.1 km/h 79 % 0 mm
08:19 21.3 °C 17.7 °C 1016.8 hPa NE 3.1 km/h 7.4 km/h 80 % 0 mm
08:24 21.4 °C 17.8 °C 1016.5 hPa ENE 4 km/h 5.6 km/h 80 % 0 mm
08:29 21.4 °C 17.8 °C 1016.8 hPa ENE 1.1 km/h 3.7 km/h 80 % 0 mm
08:34 21.5 °C 17.7 °C 1016.5 hPa ENE 1.1 km/h 3.2 km/h 79 % 0 mm
08:39 21.6 °C 17.8 °C 1016.5 hPa ENE 1.4 km/h 3.7 km/h 79 % 0 mm
08:44 21.7 °C 17.9 °C 1016.5 hPa NE 2.3 km/h 3.7 km/h 79 % 0 mm
08:49 21.7 °C 18.1 °C 1016.5 hPa Calm   3.7 km/h 80 % 0 mm
08:54 21.8 °C 18.2 °C 1016.5 hPa ENE 1.3 km/h 3.7 km/h 80 % 0 mm
08:59 21.9 °C 17.9 °C 1016.5 hPa ENE 2.6 km/h 5.6 km/h 78 % 0 mm
09:04 22.1 °C 18.1 °C 1016.5 hPa East 1 km/h 5.6 km/h 78 % 0 mm
09:05 22.1 °C 18.1 °C 1016.5 hPa NE 1.1 km/h 3.2 km/h 78 % 0 mm
09:10 22.2 °C 18.3 °C 1016.5 hPa NE 0.6 km/h 1.9 km/h 79 % 0 mm
09:15 22.3 °C 18.1 °C 1016.5 hPa NE 4.2 km/h 5.6 km/h 77 % 0 mm
09:20 22.4 °C 18.2 °C 1016.5 hPa NE 4.2 km/h 8 km/h 77 % 0 mm
09:25 22.5 °C 18.3 °C 1016.5 hPa NE 1.3 km/h 3.7 km/h 77 % 0 mm
09:30 22.6 °C 17.9 °C 1016.5 hPa NE 3.5 km/h 9.3 km/h 75 % 0 mm
09:35 22.6 °C 17.7 °C 1016.5 hPa NE 3.9 km/h 5.6 km/h 74 % 0 mm
09:40 22.7 °C 17.6 °C 1016.5 hPa ENE 2.1 km/h 5.6 km/h 73 % 0 mm
09:45 22.8 °C 17.9 °C 1016.5 hPa NE 0.8 km/h 1.9 km/h 74 % 0 mm
09:50 22.9 °C 17.8 °C 1016.5 hPa NE 3.2 km/h 5.6 km/h 73 % 0 mm
09:55 23.3 °C 18.4 °C 1016.8 hPa NE 3.5 km/h 8 km/h 74 % 0 mm
10:00 23.4 °C 18.3 °C 1016.5 hPa NE 4.3 km/h 8 km/h 73 % 0 mm
10:05 23.6 °C 18.5 °C 1016.5 hPa NE 2.1 km/h 5.6 km/h 73 % 0 mm
10:10 23.9 °C 18.6 °C 1016.5 hPa ENE 3.5 km/h 5.6 km/h 72 % 0 mm
10:15 24.1 °C 18.3 °C 1016.5 hPa ENE 4.3 km/h 8 km/h 70 % 0 mm
10:20 24.3 °C 18.3 °C 1016.5 hPa NE 3.7 km/h 8 km/h 69 % 0 mm
10:25 24.5 °C 17.9 °C 1016.5 hPa ENE 3.7 km/h 5.6 km/h 67 % 0 mm
10:29 24.6 °C 18.3 °C 1016.5 hPa NE 3.5 km/h 9.7 km/h 68 % 0 mm
10:34 25 °C 18.2 °C 1016.5 hPa East 3.4 km/h 8 km/h 66 % 0 mm
10:39 25.3 °C 18 °C 1016.1 hPa ENE 4.7 km/h 11.1 km/h 64 % 0 mm
10:44 25.4 °C 17.4 °C 1016.1 hPa NE 4.7 km/h 7.4 km/h 61 % 0 mm
10:49 25.6 °C 17.5 °C 1016.1 hPa ENE 3.5 km/h 7.4 km/h 61 % 0 mm
10:54 25.8 °C 17.5 °C 1016.1 hPa ENE 1.3 km/h 3.7 km/h 60 % 0 mm
10:59 26.3 °C 18.2 °C 1016.1 hPa NE 1.6 km/h 3.7 km/h 61 % 0 mm
11:04 26.6 °C 17.1 °C 1016.1 hPa NE 4 km/h 7.4 km/h 56 % 0 mm
11:09 26.7 °C 17.2 °C 1016.1 hPa ENE 1.1 km/h 6.4 km/h 56 % 0 mm
11:14 26.8 °C 17.3 °C 1016.1 hPa ENE 5 km/h 7.4 km/h 56 % 0 mm
11:19 26.9 °C 16.8 °C 1016.5 hPa NE 4.3 km/h 7.4 km/h 54 % 0 mm
11:24 26.9 °C 17.1 °C 1016.1 hPa ENE 1.4 km/h 5.6 km/h 55 % 0 mm
11:29 27.1 °C 17.8 °C 1016.1 hPa NE 2.6 km/h 5.6 km/h 57 % 0 mm
11:34 27.3 °C 16.9 °C 1016.1 hPa ENE 3.7 km/h 7.4 km/h 53 % 0 mm
11:39 27.4 °C 17.6 °C 1016.1 hPa ENE 1.3 km/h 3.7 km/h 55 % 0 mm
11:44 27.6 °C 18 °C 1016.1 hPa NE 2.3 km/h 4.8 km/h 56 % 0 mm
11:49 27.7 °C 17.3 °C 1016.1 hPa ENE 1.1 km/h 9.3 km/h 53 % 0 mm
11:54 27.7 °C 17.3 °C 1016.1 hPa NE 3.2 km/h 5.6 km/h 53 % 0 mm
11:59 27.8 °C 17.9 °C 1016.1 hPa NE 3.5 km/h 7.4 km/h 55 % 0 mm
12:04 27.7 °C 16.9 °C 1016.1 hPa ENE 6.8 km/h 11.3 km/h 52 % 0 mm
12:09 27.6 °C 17.4 °C 1016.1 hPa East 5.8 km/h 11.3 km/h 54 % 0 mm
12:14 27.4 °C 17.9 °C 1016.1 hPa ENE 4.5 km/h 11.3 km/h 56 % 0 mm
12:19 27.6 °C 16.8 °C 1016.1 hPa East 8 km/h 13 km/h 52 % 0 mm
12:24 27.2 °C 15.8 °C 1016.1 hPa ENE 5.1 km/h 9.3 km/h 50 % 0 mm
12:29 27.3 °C 17.8 °C 1015.8 hPa NE 0.8 km/h 3.7 km/h 56 % 0 mm
12:34 27.6 °C 17.2 °C 1016.1 hPa NE 2.1 km/h 9.3 km/h 53 % 0 mm
12:39 27.7 °C 15.7 °C 1015.8 hPa ENE 3.9 km/h 13 km/h 48 % 0 mm
12:44 27.6 °C 16.6 °C 1015.8 hPa ENE 5.1 km/h 9.7 km/h 51 % 0 mm
12:49 27.7 °C 17.6 °C 1015.8 hPa ENE 1.6 km/h 3.7 km/h 54 % 0 mm
12:55 27.7 °C 16.9 °C 1015.8 hPa NE 2.3 km/h 12.9 km/h 52 % 0 mm
13:00 27.5 °C 16.8 °C 1015.8 hPa ENE 5 km/h 5.6 km/h 52 % 0 mm
13:05 27.2 °C 16.8 °C 1015.8 hPa NE 3.1 km/h 14.8 km/h 53 % 0 mm
13:10 27.2 °C 17.4 °C 1015.8 hPa East 2.9 km/h 9.7 km/h 55 % 0 mm
13:15 27.2 °C 17.1 °C 1015.8 hPa NE 2.9 km/h 11.1 km/h 54 % 0 mm
13:20 27.1 °C 17.2 °C 1015.8 hPa NE 1.9 km/h 7.4 km/h 55 % 0 mm
13:25 26.9 °C 17.1 °C 1015.8 hPa NE 2.3 km/h 11.1 km/h 55 % 0 mm
13:30 26.7 °C 16.9 °C 1015.8 hPa NE 1.3 km/h 5.6 km/h 55 % 0 mm
13:35 26.7 °C 17.5 °C 1015.5 hPa NE 3.9 km/h 8 km/h 57 % 0 mm
13:40 26.9 °C 17.9 °C 1015.5 hPa ENE 4.7 km/h 11.1 km/h 58 % 0 mm
13:45 26.9 °C 18 °C 1015.5 hPa NE 1.6 km/h 3.7 km/h 58 % 0 mm
13:50 27.2 °C 17.9 °C 1015.1 hPa NE 3.1 km/h 5.6 km/h 57 % 0 mm
13:55 27.3 °C 18.1 °C 1015.5 hPa NE 5 km/h 11.1 km/h 57 % 0 mm
14:00 27.3 °C 17.8 °C 1015.1 hPa ENE 1.1 km/h 5.6 km/h 56 % 0 mm
14:05 27.5 °C 17.4 °C 1015.1 hPa ENE 2.6 km/h 7.4 km/h 54 % 0 mm
14:10 27.5 °C 17.9 °C 1015.1 hPa ENE 0.8 km/h 3.7 km/h 56 % 0 mm
14:15 27.6 °C 17.7 °C 1014.8 hPa NNE 4 km/h 7.4 km/h 55 % 0 mm
14:20 27.4 °C 17 °C 1015.1 hPa ENE 1.1 km/h 5.6 km/h 53 % 0 mm
14:25 27.3 °C 17.2 °C 1015.1 hPa ENE 4.2 km/h 7.4 km/h 54 % 0 mm
14:30 27.2 °C 17.6 °C 1014.8 hPa ENE 0.8 km/h 5.6 km/h 56 % 0 mm
14:35 27.3 °C 18 °C 1014.8 hPa NE 1.6 km/h 3.7 km/h 57 % 0 mm
14:40 27.3 °C 17.5 °C 1014.8 hPa NE 2.9 km/h 9.3 km/h 55 % 0 mm
14:45 27.3 °C 16.9 °C 1014.4 hPa ENE 7.4 km/h 13 km/h 53 % 0 mm
14:50 27.4 °C 17.8 °C 1014.8 hPa East 2.9 km/h 8 km/h 56 % 0 mm
14:55 27.4 °C 17.6 °C 1014.4 hPa NNE 3.2 km/h 7.4 km/h 55 % 0 mm
15:00 27.5 °C 17.9 °C 1014.4 hPa ENE 1.1 km/h 4.8 km/h 56 % 0 mm
15:06 27.6 °C 17.4 °C 1014.4 hPa ENE 1.6 km/h 9.7 km/h 54 % 0 mm
15:11 27.5 °C 17.3 °C 1014.1 hPa ENE 1.6 km/h 9.7 km/h 54 % 0 mm
15:16 27.5 °C 17.9 °C 1014.1 hPa ENE 1.6 km/h 4.8 km/h 56 % 0 mm
15:21 27.4 °C 17 °C 1014.1 hPa ENE 1.6 km/h 9.7 km/h 53 % 0 mm
15:26 27.3 °C 17.4 °C 1014.1 hPa ENE 4.8 km/h 12.9 km/h 55 % 0 mm
15:31 27.3 °C 18.1 °C 1014.1 hPa NE 1.6 km/h 4.8 km/h 57 % 0 mm
15:36 27.3 °C 18.1 °C 1014.1 hPa NE 3.2 km/h 4.8 km/h 57 % 0 mm
15:41 27.3 °C 17.8 °C 1014.1 hPa NE 4.8 km/h 11.3 km/h 56 % 0 mm
15:46 27.3 °C 17.7 °C 1014.1 hPa NE 1.6 km/h 9.7 km/h 56 % 0 mm
15:51 27.3 °C 17.7 °C 1014.1 hPa ENE 3.2 km/h 8 km/h 56 % 0 mm
15:56 27.3 °C 18.6 °C 1014.1 hPa Calm   8 km/h 59 % 0 mm
16:01 27.4 °C 18.4 °C 1013.8 hPa SSE 1.6 km/h 5.6 km/h 58 % 0 mm
16:06 27.5 °C 15.8 °C 1013.8 hPa SE 8 km/h 14.8 km/h 49 % 0 mm
16:11 27.5 °C 16.4 °C 1013.8 hPa South 0.6 km/h 5.6 km/h 51 % 0 mm
16:16 27.6 °C 16.2 °C 1013.8 hPa SE 2.1 km/h 11.1 km/h 50 % 0 mm
16:21 27.6 °C 16.2 °C 1013.8 hPa SSE 5.5 km/h 11.1 km/h 50 % 0 mm
16:26 27.6 °C 16.9 °C 1013.8 hPa SSE 1.6 km/h 5.6 km/h 52 % 0 mm
16:31 27.7 °C 16.9 °C 1013.8 hPa SE 0.8 km/h 3.7 km/h 52 % 0 mm
16:36 27.8 °C 17.3 °C 1013.8 hPa SE 2.7 km/h 5.6 km/h 53 % 0 mm
16:41 27.8 °C 17.4 °C 1013.8 hPa SE 0.6 km/h 3.7 km/h 53 % 0 mm
16:46 27.8 °C 17.1 °C 1013.8 hPa SSW 1.9 km/h 3.7 km/h 52 % 0 mm
16:51 27.7 °C 16.9 °C 1013.8 hPa SE 6.8 km/h 13 km/h 52 % 0 mm
16:56 27.6 °C 17.4 °C 1013.8 hPa Calm   5.6 km/h 54 % 0 mm
17:01 27.4 °C 17 °C 1013.4 hPa SE 5.5 km/h 6.4 km/h 53 % 0 mm
17:06 27.3 °C 17.2 °C 1013.8 hPa SW 1.3 km/h 3.7 km/h 54 % 0 mm
17:11 27.2 °C 17.1 °C 1013.4 hPa SE 2.7 km/h 5.6 km/h 54 % 0 mm
17:17 27.1 °C 17 °C 1013.8 hPa SE 1.8 km/h 9.3 km/h 54 % 0 mm
17:21 26.9 °C 16.8 °C 1013.8 hPa Calm   1.9 km/h 54 % 0 mm
17:27 26.8 °C 17.3 °C 1013.8 hPa Calm   1.9 km/h 56 % 0 mm
17:32 26.7 °C 16.9 °C 1013.8 hPa SE 1.8 km/h 9.3 km/h 55 % 0 mm
17:37 26.6 °C 17.1 °C 1013.4 hPa SE 0.8 km/h 3.7 km/h 56 % 0 mm
17:42 26.5 °C 17 °C 1013.4 hPa SE 6.6 km/h 14.8 km/h 56 % 0 mm
17:47 26.4 °C 17.4 °C 1013.4 hPa SE 0.8 km/h 3.7 km/h 58 % 0 mm
17:52 26.3 °C 17.1 °C 1013.4 hPa ESE 1.3 km/h 3.7 km/h 57 % 0 mm
17:57 26.2 °C 17 °C 1013.4 hPa WSW 1 km/h 4.8 km/h 57 % 0 mm
18:02 26.1 °C 17.2 °C 1013.1 hPa SE 0.3 km/h 1.9 km/h 58 % 0 mm
18:07 25.9 °C 17.1 °C 1013.4 hPa SE 1.3 km/h 5.6 km/h 58 % 0 mm
18:12 25.8 °C 17.2 °C 1013.4 hPa South 3.9 km/h 9.3 km/h 59 % 0 mm
18:17 25.7 °C 17.1 °C 1013.4 hPa SSE 2.1 km/h 5.6 km/h 59 % 0 mm
18:22 25.5 °C 16.9 °C 1013.4 hPa SE 5 km/h 7.4 km/h 59 % 0 mm
18:27 25.4 °C 17.1 °C 1013.4 hPa SE 1.6 km/h 3.7 km/h 60 % 0 mm
18:32 25.3 °C 17.3 °C 1013.8 hPa SE 5.6 km/h 9.7 km/h 61 % 0 mm
18:37 25.2 °C 17.1 °C 1013.8 hPa SE 2.7 km/h 5.6 km/h 61 % 0 mm
18:42 25.1 °C 17.3 °C 1013.4 hPa ESE 4.5 km/h 8 km/h 62 % 0 mm
18:47 24.9 °C 17.2 °C 1013.4 hPa SE 4.7 km/h 8 km/h 62 % 0 mm
18:52 24.8 °C 17.3 °C 1013.8 hPa SE 2.1 km/h 6.4 km/h 63 % 0 mm
18:57 24.8 °C 17.5 °C 1013.4 hPa SE 2.3 km/h 6.4 km/h 64 % 0 mm
19:02 24.7 °C 17.7 °C 1013.4 hPa SE 0.2 km/h   65 % 0 mm
19:07 24.7 °C 17.9 °C 1013.4 hPa Calm     66 % 0 mm
19:12 24.6 °C 18 °C 1013.1 hPa SE 0.2 km/h 5.6 km/h 67 % 0 mm
19:17 24.5 °C 17.9 °C 1013.4 hPa SE 1.4 km/h 3.7 km/h 67 % 0 mm
19:22 24.4 °C 17.9 °C 1013.4 hPa SE 3.2 km/h 3.7 km/h 67 % 0 mm
19:27 24.3 °C 17.8 °C 1013.4 hPa Calm     67 % 0 mm
19:32 24.2 °C 17.9 °C 1013.4 hPa Calm   1.9 km/h 68 % 0 mm
19:37 24 °C 17.9 °C 1013.8 hPa Calm     69 % 0 mm
19:43 23.8 °C 18.1 °C 1013.8 hPa Calm     70 % 0 mm
19:48 23.7 °C 17.9 °C 1013.8 hPa Calm     70 % 0 mm
19:53 23.6 °C 17.8 °C 1013.4 hPa Calm     70 % 0 mm
19:58 23.5 °C 17.9 °C 1013.4 hPa Calm     71 % 0 mm
20:03 23.4 °C 17.8 °C 1013.4 hPa Calm     71 % 0 mm
20:08 23.3 °C 17.9 °C 1013.4 hPa Calm     72 % 0 mm
20:13 23.2 °C 17.8 °C 1013.4 hPa Calm     72 % 0 mm
20:18 23.1 °C 17.9 °C 1013.4 hPa Calm     73 % 0 mm
20:23 22.9 °C 18.3 °C 1013.4 hPa Calm   1.9 km/h 75 % 0 mm
20:28 22.8 °C 18.2 °C 1013.4 hPa Calm     75 % 0 mm
20:33 22.7 °C 18.5 °C 1013.8 hPa Calm     77 % 0 mm
20:38 22.7 °C 18.4 °C 1013.8 hPa Calm     77 % 0 mm
20:43 22.6 °C 18.5 °C 1013.4 hPa SE 0.2 km/h 3.7 km/h 78 % 0 mm
20:48 22.5 °C 18.9 °C 1013.8 hPa SE 2.3 km/h 3.7 km/h 80 % 0 mm
20:53 22.4 °C 18.9 °C 1013.8 hPa Calm   5.6 km/h 81 % 0 mm
20:58 22.3 °C 19.1 °C 1013.8 hPa SE 0.8 km/h 5.6 km/h 82 % 0 mm
21:03 22.3 °C 19.1 °C 1013.4 hPa SSE 1.3 km/h 4.8 km/h 82 % 0 mm
21:08 22.3 °C 19.2 °C 1013.4 hPa SE 1 km/h 5.6 km/h 83 % 0 mm
21:13 22.2 °C 19.2 °C 1013.4 hPa SE 0.3 km/h   83 % 0 mm
21:18 22.2 °C 19.2 °C 1013.4 hPa SE 2.3 km/h 5.6 km/h 83 % 0 mm
21:23 22.2 °C 19.3 °C 1013.4 hPa SE 0.8 km/h 1.6 km/h 84 % 0 mm
21:28 22.2 °C 19.3 °C 1013.8 hPa Calm   3.7 km/h 84 % 0 mm
21:33 22.1 °C 19.3 °C 1013.8 hPa Calm     84 % 0 mm
21:38 22.1 °C 19.2 °C 1013.4 hPa Calm     84 % 0 mm
21:43 22 °C 19.2 °C 1013.4 hPa Calm     84 % 0 mm
21:48 22 °C 19.2 °C 1013.4 hPa Calm     84 % 0 mm
21:53 21.9 °C 19.1 °C 1013.4 hPa Calm     84 % 0 mm
21:58 21.9 °C 19.1 °C 1013.4 hPa Calm     84 % 0 mm
22:03 21.8 °C 19 °C 1013.8 hPa Calm     84 % 0 mm
22:08 21.8 °C 18.9 °C 1013.8 hPa Calm     84 % 0 mm
22:13 21.7 °C 19.1 °C 1013.8 hPa SE 1.3 km/h 1.6 km/h 85 % 0 mm
22:18 21.7 °C 19.2 °C 1013.8 hPa Calm     86 % 0 mm
22:23 21.6 °C 19.2 °C 1014.1 hPa Calm     86 % 0 mm
22:28 21.6 °C 19.1 °C 1013.8 hPa Calm     86 % 0 mm
22:33 21.5 °C 19.1 °C 1013.8 hPa Calm     86 % 0 mm
22:36 21.4 °C 19 °C 1013.8 hPa Calm     86 % 0 mm
22:41 21.4 °C 19.4 °C 1013.8 hPa Calm     88 % 0 mm
22:46 21.4 °C 19.5 °C 1013.8 hPa Calm     89 % 0 mm
22:51 21.3 °C 19.4 °C 1013.8 hPa Calm     89 % 0 mm
22:56 21.3 °C 19.4 °C 1013.8 hPa Calm     89 % 0 mm
23:01 21.2 °C 19.2 °C 1013.8 hPa Calm     88 % 0 mm
23:06 21.2 °C 19.3 °C 1013.8 hPa Calm     89 % 0 mm
23:11 21.2 °C 19.3 °C 1013.8 hPa Calm     89 % 0 mm
23:21 21.2 °C 19.4 °C 1013.8 hPa Calm   3.7 km/h 90 % 0 mm
23:23 21.2 °C 19.4 °C 1013.8 hPa Calm     90 % 0 mm
23:26 21.2 °C 19.4 °C 1013.8 hPa Calm     90 % 0 mm
23:29 21.2 °C 19.6 °C 1013.8 hPa Calm     91 % 0 mm
23:33 21.2 °C 19.6 °C 1013.8 hPa Calm     91 % 0 mm
23:38 21.2 °C 19.9 °C 1013.4 hPa Calm     92 % 0 mm
23:43 21.2 °C 19.9 °C 1013.4 hPa Calm     92 % 0 mm
23:48 21.3 °C 20.1 °C 1013.4 hPa SE 0.3 km/h   93 % 0 mm
23:53 21.3 °C 20.2 °C 1013.4 hPa Calm     93 % 0 mm
23:58 21.4 °C 20.2 °C 1013.4 hPa Calm     93 % 0 mm
Crab Meadow Weather
Compliments of Weather Underground - 3 mb

Script developed by  Jim McMurry - jmcmurry@mwt.net Adapted for the template by  Wim van der Kuil - Leuven-Template.eu

Astronomy: One day on Jupiter is only 9 hours and 55 minutes.